Time;durP1;ratioP1;P1;durP2;ratioP2;P2;SDS_P1;SDS_P2;PMS_P1;PMS_P2;Temp;Humidity;BMP_temperature;BMP_pressure;BME280_temperature;BME280_humidity;BME280_pressure;Samples;Min_cycle;Max_cycle;Signal;HPM_P1;HPM_P2
2022/04/05 00:01:41;;;;;;;1.23;1.13;;;6.90;99.90;;;;;;5055798;28;20048;-83
2022/04/05 00:04:07;;;;;;;1.80;1.17;;;6.90;99.90;;;;;;5063368;28;20069;-82
2022/04/05 00:06:32;;;;;;;1.95;0.82;;;7.80;99.90;;;;;;5064835;28;20041;-83
2022/04/05 00:08:58;;;;;;;4.72;0.98;;;7.00;99.90;;;;;;5072143;28;20036;-83
2022/04/05 00:11:23;;;;;;;3.28;1.50;;;7.00;99.90;;;;;;5038039;28;20049;-81
2022/04/05 00:13:49;;;;;;;0.77;0.77;;;6.90;99.90;;;;;;5054194;28;20560;-82
2022/04/05 00:16:15;;;;;;;0.80;0.80;;;6.90;99.90;;;;;;5068178;28;20044;-83
2022/04/05 00:18:41;;;;;;;0.88;0.88;;;6.90;99.90;;;;;;5063200;28;20519;-83
2022/04/05 00:21:07;;;;;;;0.57;0.57;;;6.80;99.90;;;;;;5032352;28;20052;-83
2022/04/05 00:23:33;;;;;;;2.83;0.98;;;6.80;99.90;;;;;;5030284;28;20044;-85
2022/04/05 00:25:59;;;;;;;3.42;1.73;;;6.80;99.90;;;;;;5022179;28;20128;-82
2022/04/05 00:28:24;;;;;;;2.55;1.35;;;6.80;99.90;;;;;;5055732;28;20123;-82
2022/04/05 00:30:50;;;;;;;3.58;1.80;;;6.80;99.90;;;;;;5042592;28;20045;-83
2022/04/05 00:33:16;;;;;;;0.68;0.68;;;6.80;99.90;;;;;;5072368;28;20374;-83
2022/04/05 00:35:41;;;;;;;0.55;0.55;;;7.20;99.90;;;;;;5029376;28;20044;-81
2022/04/05 00:38:08;;;;;;;1.65;0.50;;;6.80;99.90;;;;;;5059577;28;20040;-82
2022/04/05 00:40:36;;;;;;;3.35;1.08;;;6.80;99.90;;;;;;5051009;28;20040;-82
2022/04/05 00:43:05;;;;;;;2.03;1.35;;;6.80;99.90;;;;;;5060036;28;20044;-81
2022/04/05 00:45:34;;;;;;;4.93;1.00;;;6.80;99.90;;;;;;5047218;28;20041;-84
2022/04/05 00:48:00;;;;;;;0.52;0.52;;;6.80;99.90;;;;;;5069551;28;20037;-81
2022/04/05 00:50:27;;;;;;;0.45;0.45;;;6.80;99.90;;;;;;5072010;28;20039;-81
2022/04/05 00:52:53;;;;;;;1.00;0.98;;;6.80;99.90;;;;;;5052373;28;20085;-81
2022/04/05 00:55:22;;;;;;;4.47;1.20;;;6.70;99.90;;;;;;5054182;28;20120;-83
2022/04/05 00:57:53;;;;;;;1.63;0.95;;;6.70;99.90;;;;;;5037909;28;20394;-83
2022/04/05 01:00:19;;;;;;;0.80;0.80;;;6.70;99.90;;;;;;5056732;28;20043;-83
2022/04/05 01:02:48;;;;;;;1.13;0.88;;;6.70;99.90;;;;;;5040775;28;20086;-83
2022/04/05 01:05:17;;;;;;;0.82;0.82;;;6.70;99.90;;;;;;5079424;28;20063;-81
2022/04/05 01:07:46;;;;;;;1.48;1.27;;;6.70;99.90;;;;;;5052688;28;20033;-82
2022/04/05 01:10:12;;;;;;;3.78;1.50;;;6.70;99.90;;;;;;5051011;28;20029;-82
2022/04/05 01:12:38;;;;;;;2.10;1.95;;;6.70;99.90;;;;;;5038969;28;20052;-81
2022/04/05 01:15:04;;;;;;;0.73;0.73;;;6.60;99.90;;;;;;5041353;28;20036;-82
2022/04/05 01:17:31;;;;;;;0.52;0.52;;;6.50;99.90;;;;;;5040282;28;21483;-81
2022/04/05 01:19:57;;;;;;;3.50;0.70;;;6.40;99.90;;;;;;5067097;28;20123;-80
2022/04/05 01:22:22;;;;;;;0.85;0.80;;;6.30;99.90;;;;;;5071873;28;20418;-82
2022/04/05 01:24:48;;;;;;;3.42;0.90;;;6.30;99.90;;;;;;5057422;28;20211;-84
2022/04/05 01:27:18;;;;;;;0.50;0.50;;;6.20;99.90;;;;;;5073677;28;20032;-82
2022/04/05 01:29:45;;;;;;;2.15;1.25;;;6.70;99.90;;;;;;5045996;28;20469;-81
2022/04/05 01:32:10;;;;;;;4.38;1.33;;;6.20;99.90;;;;;;5039063;28;20093;-82
2022/04/05 01:34:38;;;;;;;1.02;1.02;;;6.40;99.90;;;;;;5044137;28;20040;-81
2022/04/05 01:37:10;;;;;;;0.82;0.82;;;6.10;99.90;;;;;;5074366;28;20048;-81
2022/04/05 01:39:38;;;;;;;0.70;0.70;;;6.10;99.90;;;;;;5078565;28;20390;-82
2022/04/05 01:42:06;;;;;;;1.65;1.55;;;6.20;99.90;;;;;;5044603;28;20041;-82
2022/04/05 01:44:34;;;;;;;1.00;1.00;;;6.00;99.90;;;;;;5073917;28;20366;-84
2022/04/05 01:47:07;;;;;;;0.60;0.60;;;6.00;99.90;;;;;;5035656;28;20036;-81
2022/04/05 01:49:33;;;;;;;0.85;0.85;;;6.00;99.90;;;;;;5062943;28;20032;-82
2022/04/05 01:51:59;;;;;;;;;;;5.90;99.90;;;;;;5055295;28;20041;-79
2022/04/05 01:54:24;;;;;;;2.15;0.88;;;5.90;99.90;;;;;;5058901;28;19946;-83
2022/04/05 01:56:51;;;;;;;6.68;1.20;;;5.90;99.90;;;;;;5053180;28;20048;-83
2022/04/05 01:59:22;;;;;;;0.70;0.70;;;5.90;99.90;;;;;;5056495;28;20044;-83
2022/04/05 02:01:49;;;;;;;1.30;1.10;;;6.00;99.90;;;;;;5055715;28;20367;-83
2022/04/05 02:04:16;;;;;;;3.20;0.85;;;5.90;99.90;;;;;;5073179;28;20036;-83
2022/04/05 02:06:43;;;;;;;1.05;1.05;;;6.00;99.90;;;;;;5057616;28;20036;-82
2022/04/05 02:09:11;;;;;;;6.75;2.05;;;5.90;99.90;;;;;;5057191;28;20068;-81
2022/04/05 02:11:37;;;;;;;2.30;0.80;;;5.90;99.90;;;;;;5059412;28;20045;-81
2022/04/05 02:14:03;;;;;;;0.82;0.82;;;6.00;99.90;;;;;;5078204;28;20044;-82
2022/04/05 02:16:29;;;;;;;;;;;5.90;99.90;;;;;;5054953;28;20036;-82
2022/04/05 02:18:55;;;;;;;0.82;0.82;;;5.90;99.90;;;;;;5056565;28;19916;-84
2022/04/05 02:21:21;;;;;;;4.30;2.05;;;5.90;99.90;;;;;;5053738;28;20047;-82
2022/04/05 02:23:47;;;;;;;;;;;5.90;99.90;;;;;;5055649;28;20040;-81
2022/04/05 02:26:12;;;;;;;0.60;0.60;;;5.90;99.90;;;;;;5077074;28;19988;-83
2022/04/05 02:28:38;;;;;;;4.32;1.25;;;5.90;99.90;;;;;;5077514;28;20043;-81
2022/04/05 02:31:04;;;;;;;1.25;1.17;;;5.90;99.90;;;;;;5057725;28;20070;-80
2022/04/05 02:33:30;;;;;;;2.28;1.80;;;6.30;99.90;;;;;;5042981;28;20041;-79
2022/04/05 02:35:56;;;;;;;1.55;1.00;;;5.80;99.90;;;;;;5046940;28;20072;-82
2022/04/05 02:38:21;;;;;;;6.45;1.42;;;5.80;99.90;;;;;;5050382;28;20044;-82
2022/04/05 02:40:47;;;;;;;2.33;1.45;;;5.90;99.90;;;;;;5054721;28;20041;-81
2022/04/05 02:43:13;;;;;;;1.65;1.02;;;5.80;99.90;;;;;;5041688;28;20048;-82
2022/04/05 02:45:39;;;;;;;;;;;5.90;99.90;;;;;;5078257;28;20033;-82
2022/04/05 02:48:05;;;;;;;1.10;1.00;;;5.90;99.90;;;;;;5056560;28;19938;-83
2022/04/05 02:50:31;;;;;;;1.42;1.25;;;5.90;99.90;;;;;;5073152;28;20041;-82
2022/04/05 02:52:57;;;;;;;9.18;1.02;;;5.90;99.90;;;;;;5040090;28;20036;-82
2022/04/05 02:55:23;;;;;;;5.63;2.25;;;5.90;99.90;;;;;;5038192;28;20119;-82
2022/04/05 02:57:50;;;;;;;;;;;5.90;99.90;;;;;;5055364;28;20036;-81
2022/04/05 03:00:17;;;;;;;1.63;0.98;;;5.90;99.90;;;;;;5066194;28;19964;-83
2022/04/05 03:02:44;;;;;;;2.65;1.52;;;5.90;99.90;;;;;;5051622;28;20036;-84
2022/04/05 03:05:11;;;;;;;1.73;1.45;;;5.90;99.90;;;;;;5056861;28;20044;-81
2022/04/05 03:07:37;;;;;;;1.17;0.85;;;5.90;99.90;;;;;;5069825;28;20040;-80
2022/04/05 03:10:04;;;;;;;;;;;5.90;99.90;;;;;;5056546;28;20478;-79
2022/04/05 03:12:30;;;;;;;0.85;0.77;;;5.90;99.90;;;;;;5072675;28;19920;-81
2022/04/05 03:14:56;;;;;;;1.13;1.13;;;5.90;99.90;;;;;;5057291;28;20781;-83
2022/04/05 03:17:22;;;;;;;1.20;0.73;;;5.90;99.90;;;;;;5054957;28;20033;-82
2022/04/05 03:19:48;;;;;;;1.77;1.30;;;5.90;99.90;;;;;;5057758;28;20055;-81
2022/04/05 03:22:16;;;;;;;2.42;1.17;;;6.10;99.90;;;;;;5041933;28;20118;-81
2022/04/05 03:24:43;;;;;;;1.65;0.63;;;7.00;99.90;;;;;;5057756;28;20074;-83
2022/04/05 03:27:09;;;;;;;1.33;1.23;;;5.90;99.90;;;;;;5075668;28;20087;-84
2022/04/05 03:29:35;;;;;;;1.10;1.00;;;5.90;99.90;;;;;;5056082;28;20481;-83
2022/04/05 03:32:01;;;;;;;;;;;5.90;99.90;;;;;;5056560;28;20037;-84
2022/04/05 03:34:28;;;;;;;0.40;0.40;;;5.80;99.90;;;;;;5073042;28;19920;-82
2022/04/05 03:36:54;;;;;;;0.60;0.60;;;5.80;99.90;;;;;;5057518;28;20043;-83
2022/04/05 03:39:20;;;;;;;4.57;0.65;;;5.80;99.90;;;;;;5041668;28;20047;-82
2022/04/05 03:41:46;;;;;;;0.60;0.60;;;5.80;99.90;;;;;;5056643;28;20097;-84
2022/04/05 03:44:12;;;;;;;2.78;1.77;;;5.80;99.90;;;;;;5053369;28;20069;-83
2022/04/05 03:46:38;;;;;;;;;;;5.80;99.90;;;;;;5054206;28;20048;-82
2022/04/05 03:49:04;;;;;;;1.30;1.30;;;5.80;99.90;;;;;;5048022;28;20404;-83
2022/04/05 03:51:30;;;;;;;0.63;0.63;;;5.80;99.90;;;;;;5037400;28;20029;-83
2022/04/05 03:53:56;;;;;;;2.55;1.70;;;5.70;99.90;;;;;;5041358;28;20067;-84
2022/04/05 03:56:25;;;;;;;;;;;5.80;99.90;;;;;;5074434;28;20040;-83
2022/04/05 03:58:51;;;;;;;1.20;1.13;;;5.80;99.90;;;;;;5070958;28;19916;-82
2022/04/05 04:01:17;;;;;;;0.70;0.70;;;5.80;99.90;;;;;;5055473;28;20093;-82
2022/04/05 04:03:43;;;;;;;;;;;5.80;99.90;;;;;;5037206;28;20529;-85
2022/04/05 04:06:08;;;;;;;1.42;1.23;;;6.40;99.90;;;;;;5070719;28;19920;-83
2022/04/05 04:08:35;;;;;;;7.22;0.65;;;5.80;99.90;;;;;;5031549;28;20037;-80
2022/04/05 04:11:02;;;;;;;0.95;0.95;;;5.80;99.90;;;;;;5065964;28;20064;-84
2022/04/05 04:13:28;;;;;;;3.50;1.00;;;5.80;99.90;;;;;;5052670;28;20053;-83
2022/04/05 04:15:58;;;;;;;22.13;1.58;;;5.90;99.90;;;;;;5056768;28;20060;-82
2022/04/05 04:18:41;;;;;;;8.43;0.60;;;5.90;99.90;;;;;;5067381;28;20044;-84
2022/04/05 04:21:06;;;;;;;3.53;1.20;;;6.60;99.90;;;;;;5038128;28;20032;-81
2022/04/05 04:23:32;;;;;;;0.43;0.43;;;5.90;99.90;;;;;;5041433;28;20504;-82
2022/04/05 04:25:58;;;;;;;0.50;0.50;;;5.90;99.90;;;;;;5068362;28;20036;-82
2022/04/05 04:28:24;;;;;;;14.50;0.70;;;6.10;99.90;;;;;;5033081;28;20443;-82
2022/04/05 04:30:49;;;;;;;2.10;1.20;;;5.80;99.90;;;;;;5033153;28;20040;-84
2022/04/05 04:33:15;;;;;;;0.88;0.88;;;5.80;99.90;;;;;;5035219;28;20045;-83
2022/04/05 04:35:42;;;;;;;3.83;0.77;;;5.80;99.90;;;;;;5059848;28;20144;-84
2022/04/05 04:38:08;;;;;;;1.67;0.65;;;5.80;99.90;;;;;;5042776;28;20044;-82
2022/04/05 04:40:35;;;;;;;4.57;1.15;;;5.80;99.90;;;;;;5045053;28;20044;-82
2022/04/05 04:43:02;;;;;;;0.85;0.85;;;5.80;99.90;;;;;;5067460;28;20033;-83
2022/04/05 04:45:30;;;;;;;5.15;1.38;;;6.00;99.90;;;;;;5032615;28;20068;-82
2022/04/05 04:47:57;;;;;;;0.60;0.60;;;5.90;99.90;;;;;;5049572;28;20044;-82
2022/04/05 04:50:23;;;;;;;;;;;5.90;99.90;;;;;;5058218;28;20040;-83
2022/04/05 04:52:48;;;;;;;0.75;0.75;;;5.90;99.90;;;;;;5070779;28;20023;-82
2022/04/05 04:55:14;;;;;;;0.40;0.40;;;5.90;99.90;;;;;;5070723;28;20036;-83
2022/04/05 04:57:40;;;;;;;2.60;1.50;;;5.90;99.90;;;;;;5077659;28;20044;-83
2022/04/05 05:00:06;;;;;;;1.92;0.82;;;5.80;99.90;;;;;;5077335;28;20095;-83
2022/04/05 05:02:49;;;;;;;1.50;1.40;;;5.90;99.90;;;;;;5044061;28;20037;-82
2022/04/05 05:05:19;;;;;;;3.78;1.08;;;5.80;99.90;;;;;;5076388;28;20555;-83
2022/04/05 05:07:45;;;;;;;1.10;1.00;;;5.80;99.90;;;;;;5039709;28;20115;-84
2022/04/05 05:10:11;;;;;;;1.15;1.05;;;5.90;99.90;;;;;;5065138;28;20067;-84
2022/04/05 05:12:40;;;;;;;;;;;6.00;99.90;;;;;;5040783;28;20048;-83
2022/04/05 05:15:08;;;;;;;1.95;0.65;;;5.90;99.90;;;;;;5060349;28;20005;-83
2022/04/05 05:17:35;;;;;;;1.00;0.90;;;5.90;99.90;;;;;;5058806;28;20119;-82
2022/04/05 05:20:02;;;;;;;0.80;0.80;;;5.90;99.90;;;;;;5028506;28;20045;-84
2022/04/05 05:22:28;;;;;;;1.88;1.33;;;6.00;99.90;;;;;;5057281;28;20037;-83
2022/04/05 05:24:53;;;;;;;1.10;1.00;;;7.20;99.90;;;;;;5043460;28;20385;-83
2022/04/05 05:27:19;;;;;;;2.53;1.58;;;5.90;99.90;;;;;;5058180;28;20514;-84
2022/04/05 05:29:48;;;;;;;0.65;0.65;;;6.00;99.90;;;;;;5070547;28;20037;-81
2022/04/05 05:32:14;;;;;;;3.13;1.60;;;6.00;99.90;;;;;;5059353;28;20033;-82
2022/04/05 05:34:40;;;;;;;1.58;0.80;;;6.00;99.90;;;;;;5072649;28;20040;-82
2022/04/05 05:37:05;;;;;;;1.60;1.13;;;6.00;99.90;;;;;;5065028;28;20043;-83
2022/04/05 05:39:32;;;;;;;4.00;1.15;;;6.10;99.90;;;;;;5073225;28;20494;-84
2022/04/05 05:41:58;;;;;;;11.10;0.80;;;6.10;99.90;;;;;;5061124;28;20037;-83
2022/04/05 05:44:24;;;;;;;0.95;0.95;;;6.30;99.90;;;;;;5047541;28;20086;-84
2022/04/05 05:46:50;;;;;;;;;;;6.10;99.90;;;;;;5028837;28;20093;-82
2022/04/05 05:49:16;;;;;;;2.70;1.67;;;6.20;99.90;;;;;;5060690;28;19916;-82
2022/04/05 05:51:42;;;;;;;0.70;0.70;;;6.20;99.90;;;;;;5080187;28;20040;-84
2022/04/05 05:54:08;;;;;;;1.65;1.45;;;6.30;99.90;;;;;;5040368;28;20040;-83
2022/04/05 05:56:34;;;;;;;0.57;0.57;;;6.70;99.90;;;;;;5058898;28;20058;-78
2022/04/05 05:59:00;;;;;;;0.77;0.77;;;6.30;99.90;;;;;;5065388;28;20098;-83
2022/04/05 06:01:26;;;;;;;1.67;1.58;;;6.30;99.90;;;;;;5090375;28;20040;-82
2022/04/05 06:03:53;;;;;;;0.88;0.80;;;6.30;99.90;;;;;;5100639;28;20036;-83
2022/04/05 06:06:18;;;;;;;0.70;0.70;;;6.40;99.90;;;;;;5063036;28;20045;-85
2022/04/05 06:08:44;;;;;;;1.95;0.85;;;6.40;99.90;;;;;;5055254;28;20119;-83
2022/04/05 06:11:10;;;;;;;1.42;1.33;;;6.40;99.90;;;;;;5057676;28;20056;-82
2022/04/05 06:13:37;;;;;;;5.78;1.83;;;6.50;99.90;;;;;;5088773;28;20061;-84
2022/04/05 06:16:03;;;;;;;1.40;1.25;;;6.50;99.90;;;;;;5086412;28;20402;-81
2022/04/05 06:18:29;;;;;;;;;;;6.50;99.90;;;;;;5069161;28;20055;-85
2022/04/05 06:20:54;;;;;;;2.78;1.45;;;6.50;99.90;;;;;;5065292;28;19916;-84
2022/04/05 06:23:20;;;;;;;0.60;0.60;;;6.50;99.90;;;;;;5057774;28;20032;-84
2022/04/05 06:25:46;;;;;;;0.82;0.80;;;6.50;99.90;;;;;;5058007;28;20094;-83
2022/04/05 06:28:12;;;;;;;0.60;0.60;;;6.50;99.90;;;;;;5056296;28;20094;-84
2022/04/05 06:30:39;;;;;;;;;;;6.50;99.90;;;;;;5040308;28;20080;-84
2022/04/05 06:33:09;;;;;;;2.90;1.30;;;6.50;99.90;;;;;;5061535;28;19920;-85
2022/04/05 06:35:36;;;;;;;0.50;0.50;;;6.50;99.90;;;;;;5060201;28;20049;-85
2022/04/05 06:38:02;;;;;;;0.68;0.68;;;6.60;99.90;;;;;;5067746;28;20043;-84
2022/04/05 06:40:28;;;;;;;6.03;1.15;;;6.60;99.90;;;;;;5060470;28;20042;-83
2022/04/05 06:42:54;;;;;;;1.42;1.08;;;6.70;99.90;;;;;;5074604;28;20117;-82
2022/04/05 06:45:22;;;;;;;14.38;1.55;;;6.70;99.90;;;;;;5029224;28;20036;-83
2022/04/05 06:47:48;;;;;;;1.73;1.02;;;6.60;99.90;;;;;;5062508;28;20075;-84
2022/04/05 06:50:20;;;;;;;3.25;1.38;;;6.80;99.90;;;;;;5062467;28;20041;-84
2022/04/05 06:52:49;;;;;;;0.50;0.50;;;6.80;99.90;;;;;;5071479;28;20072;-85
2022/04/05 06:55:25;;;;;;;0.95;0.95;;;6.80;99.90;;;;;;5056949;28;20040;-86
2022/04/05 06:58:08;;;;;;;0.60;0.60;;;6.90;99.90;;;;;;5068845;28;20048;-85
2022/04/05 07:00:38;;;;;;;0.65;0.65;;;7.00;99.90;;;;;;5059034;28;20408;-84
2022/04/05 07:03:04;;;;;;;4.05;1.17;;;7.00;99.90;;;;;;5039177;28;20045;-83
2022/04/05 07:05:30;;;;;;;1.13;0.90;;;7.10;99.90;;;;;;5049141;28;20048;-83
2022/04/05 07:07:56;;;;;;;0.35;0.35;;;7.20;99.90;;;;;;5076370;28;20124;-84
2022/04/05 07:10:23;;;;;;;0.70;0.70;;;7.20;99.90;;;;;;5035312;28;20036;-83
2022/04/05 07:12:49;;;;;;;0.98;0.75;;;7.30;99.90;;;;;;5050496;28;20160;-82
2022/04/05 07:15:15;;;;;;;;;;;7.30;99.90;;;;;;5052176;28;20106;-86
2022/04/05 07:17:43;;;;;;;1.45;1.23;;;7.30;99.90;;;;;;5061828;28;20238;-84
2022/04/05 07:20:10;;;;;;;0.52;0.52;;;7.40;99.90;;;;;;5057440;28;20131;-85
2022/04/05 07:22:44;;;;;;;5.05;0.93;;;7.40;99.90;;;;;;5074283;28;20711;-84
2022/04/05 07:25:09;;;;;;;0.90;0.82;;;7.40;99.90;;;;;;5065007;28;20078;-82
2022/04/05 07:27:35;;;;;;;0.88;0.88;;;7.40;99.90;;;;;;5076322;28;20492;-84
2022/04/05 07:30:01;;;;;;;0.40;0.40;;;7.40;99.90;;;;;;5062544;28;20063;-83
2022/04/05 07:32:26;;;;;;;1.85;0.82;;;7.40;99.90;;;;;;5051811;28;20078;-83
2022/04/05 07:34:52;;;;;;;0.52;0.52;;;7.40;99.90;;;;;;5073701;28;20041;-82
2022/04/05 07:37:18;;;;;;;4.53;1.05;;;7.40;99.90;;;;;;5077371;28;20150;-81
2022/04/05 07:39:44;;;;;;;3.30;1.08;;;7.40;99.90;;;;;;5048639;28;20047;-84
2022/04/05 07:42:09;;;;;;;2.67;1.40;;;7.40;99.90;;;;;;5041001;28;20067;-82
2022/04/05 07:44:35;;;;;;;2.10;0.95;;;7.30;99.90;;;;;;5060877;28;20131;-80
2022/04/05 07:47:01;;;;;;;3.53;1.05;;;7.30;99.90;;;;;;5061770;28;20053;-84
2022/04/05 07:49:27;;;;;;;1.23;0.95;;;7.30;99.90;;;;;;5042443;28;20535;-85
2022/04/05 07:51:53;;;;;;;2.80;0.98;;;7.30;99.90;;;;;;5044683;28;20056;-85
2022/04/05 07:54:18;;;;;;;0.70;0.70;;;7.30;99.90;;;;;;5016463;28;20041;-82
2022/04/05 07:56:44;;;;;;;2.72;1.83;;;7.40;99.90;;;;;;5047462;28;20105;-83
2022/04/05 07:59:10;;;;;;;0.90;0.90;;;7.30;99.90;;;;;;5073685;28;20184;-81
2022/04/05 08:01:36;;;;;;;1.63;1.45;;;7.30;99.90;;;;;;5039242;28;20040;-80
2022/04/05 08:04:02;;;;;;;1.40;1.05;;;7.30;99.90;;;;;;5040364;28;20044;-84
2022/04/05 08:06:28;;;;;;;2.38;1.60;;;7.20;99.90;;;;;;5040941;28;20044;-82
2022/04/05 08:08:54;;;;;;;1.00;1.00;;;7.30;99.90;;;;;;5057281;28;20048;-83
2022/04/05 08:11:20;;;;;;;0.75;0.75;;;7.30;99.90;;;;;;5057229;28;20074;-83
2022/04/05 08:13:46;;;;;;;0.73;0.73;;;7.40;99.90;;;;;;5055929;28;20123;-82
2022/04/05 08:16:12;;;;;;;0.40;0.40;;;7.40;99.90;;;;;;5056132;28;20429;-82
2022/04/05 08:18:37;;;;;;;1.42;1.33;;;7.40;99.90;;;;;;5052944;28;20195;-83
2022/04/05 08:21:03;;;;;;;0.73;0.73;;;7.40;99.90;;;;;;5051011;28;20076;-81
2022/04/05 08:23:29;;;;;;;1.30;1.17;;;7.50;99.90;;;;;;5039575;28;20152;-85
2022/04/05 08:25:55;;;;;;;1.88;1.05;;;7.50;99.90;;;;;;5055674;28;20086;-84
2022/04/05 08:28:20;;;;;;;4.32;1.75;;;7.60;99.90;;;;;;5054672;28;20041;-85
2022/04/05 08:30:46;;;;;;;0.40;0.40;;;7.60;99.90;;;;;;5041985;28;20386;-85
2022/04/05 08:33:13;;;;;;;1.73;0.70;;;7.70;99.90;;;;;;5073678;28;20482;-84
2022/04/05 08:35:39;;;;;;;1.38;1.27;;;8.20;99.90;;;;;;5043623;28;20033;-83
2022/04/05 08:38:06;;;;;;;0.65;0.65;;;7.80;99.90;;;;;;5053202;28;20043;-85
2022/04/05 08:40:32;;;;;;;1.33;0.95;;;8.00;99.90;;;;;;5047678;28;20044;-83
2022/04/05 08:42:58;;;;;;;;;;;8.20;99.90;;;;;;5062462;28;20047;-82
2022/04/05 08:45:26;;;;;;;0.90;0.90;;;8.30;99.90;;;;;;5059293;28;19924;-84
2022/04/05 08:47:57;;;;;;;0.90;0.75;;;8.40;99.90;;;;;;5059809;28;20070;-82
2022/04/05 08:50:27;;;;;;;0.80;0.80;;;8.40;99.90;;;;;;5058990;28;20472;-84
2022/04/05 08:52:58;;;;;;;4.57;0.70;;;8.40;99.90;;;;;;5058032;28;20037;-85
2022/04/05 08:55:24;;;;;;;1.45;0.88;;;8.30;99.90;;;;;;5045383;28;20072;-84
2022/04/05 08:57:50;;;;;;;1.83;1.10;;;8.50;99.90;;;;;;5075302;28;20401;-83
2022/04/05 09:00:19;;;;;;;1.15;1.00;;;8.40;99.90;;;;;;5075513;28;20047;-84
2022/04/05 09:02:58;;;;;;;1.63;1.10;;;8.40;99.90;;;;;;5045329;28;20040;-83
2022/04/05 09:05:34;;;;;;;1.75;1.20;;;8.40;99.90;;;;;;5068668;28;20051;-84
2022/04/05 09:08:15;;;;;;;1.10;1.00;;;8.30;99.90;;;;;;5074465;28;20043;-84
2022/04/05 09:10:42;;;;;;;3.38;1.25;;;8.30;99.90;;;;;;5066612;28;20048;-85
2022/04/05 09:13:15;;;;;;;0.60;0.60;;;8.30;99.90;;;;;;5056576;28;20056;-85
2022/04/05 09:15:42;;;;;;;1.42;0.85;;;8.20;99.90;;;;;;5042210;28;20048;-86
2022/04/05 09:18:08;;;;;;;2.47;1.20;;;8.20;99.90;;;;;;5038682;28;20037;-85
2022/04/05 09:20:46;;;;;;;0.82;0.82;;;8.30;99.90;;;;;;5053343;28;20037;-84
2022/04/05 09:23:26;;;;;;;0.47;0.47;;;8.30;99.90;;;;;;5066999;28;20044;-85
2022/04/05 09:26:03;;;;;;;4.70;1.30;;;8.40;99.90;;;;;;5093480;28;20038;-86
2022/04/05 09:28:33;;;;;;;0.77;0.77;;;8.40;99.90;;;;;;5094193;28;20050;-86
2022/04/05 09:31:01;;;;;;;1.42;1.33;;;8.40;99.90;;;;;;5066237;28;20135;-83
2022/04/05 09:33:32;;;;;;;0.55;0.55;;;8.40;99.90;;;;;;5078760;28;20424;-85
2022/04/05 09:36:12;;;;;;;0.68;0.68;;;8.40;99.90;;;;;;5078450;28;20076;-85
2022/04/05 09:38:40;;;;;;;0.73;0.73;;;8.30;99.90;;;;;;5058263;28;20161;-84
2022/04/05 09:41:13;;;;;;;0.55;0.55;;;8.40;99.90;;;;;;5047872;28;20040;-85
2022/04/05 09:43:57;;;;;;;0.70;0.70;;;8.40;99.90;;;;;;5061031;28;20127;-85
2022/04/05 09:46:23;;;;;;;2.78;1.35;;;8.40;99.90;;;;;;5066656;28;20040;-85
2022/04/05 09:49:04;;;;;;;2.95;1.52;;;8.40;99.90;;;;;;5063433;28;20039;-85
2022/04/05 09:51:35;;;;;;;2.95;1.38;;;8.40;99.90;;;;;;5074676;28;20047;-83
2022/04/05 09:54:01;;;;;;;1.27;1.10;;;8.30;99.90;;;;;;5057746;28;20037;-82
2022/04/05 09:56:32;;;;;;;1.08;0.98;;;8.30;99.90;;;;;;5031542;28;20093;-85
2022/04/05 09:59:14;;;;;;;0.65;0.65;;;8.20;99.90;;;;;;5065378;28;20041;-86
2022/04/05 10:01:40;;;;;;;1.58;1.48;;;8.20;99.90;;;;;;5059839;28;20070;-86
2022/04/05 10:04:12;;;;;;;2.72;0.98;;;8.10;99.90;;;;;;5055888;28;20056;-86
2022/04/05 10:06:42;;;;;;;1.00;0.93;;;8.00;99.90;;;;;;5084274;28;20115;-88
2022/04/05 10:09:08;;;;;;;4.70;1.55;;;8.00;99.90;;;;;;5055773;28;20037;-85
2022/04/05 10:11:36;;;;;;;0.82;0.82;;;7.90;99.90;;;;;;5067999;28;20061;-84
2022/04/05 10:14:03;;;;;;;0.50;0.50;;;8.00;99.90;;;;;;5057469;28;20052;-86
2022/04/05 10:16:30;;;;;;;1.38;1.13;;;7.40;99.90;;;;;;5046192;28;20094;-85
2022/04/05 10:18:58;;;;;;;3.92;1.27;;;8.00;99.90;;;;;;5059038;28;20378;-85
2022/04/05 10:21:29;;;;;;;1.73;1.15;;;8.10;99.90;;;;;;5058773;28;20504;-82
2022/04/05 10:23:56;;;;;;;1.42;1.33;;;8.10;99.90;;;;;;5055453;28;20501;-84
2022/04/05 10:26:25;;;;;;;1.42;1.00;;;8.10;99.90;;;;;;5074378;28;20032;-84
2022/04/05 10:28:53;;;;;;;1.05;0.98;;;8.10;99.90;;;;;;5073528;28;20041;-82
2022/04/05 10:31:40;;;;;;;2.75;1.35;;;8.10;99.90;;;;;;5072641;28;20086;-82
2022/04/05 10:34:30;;;;;;;5.43;1.10;;;8.20;99.90;;;;;;5088052;28;20489;-80
2022/04/05 10:37:17;;;;;;;0.88;0.73;;;8.10;99.90;;;;;;5086391;28;20051;-85
2022/04/05 10:40:04;;;;;;;1.08;1.00;;;8.10;99.90;;;;;;5059153;28;20052;-83
2022/04/05 10:42:43;;;;;;;0.82;0.82;;;8.20;99.90;;;;;;5058294;28;20059;-83
2022/04/05 10:45:29;;;;;;;1.73;0.98;;;8.30;99.90;;;;;;5074832;28;20036;-83
2022/04/05 10:48:26;;;;;;;0.70;0.70;;;8.30;99.90;;;;;;5061223;28;21006;-83
2022/04/05 10:51:05;;;;;;;1.13;0.95;;;8.40;99.90;;;;;;5055672;28;20047;-83
2022/04/05 10:53:41;;;;;;;0.70;0.70;;;8.50;99.90;;;;;;5055448;28;20048;-83
2022/04/05 10:56:11;;;;;;;0.70;0.65;;;8.60;99.90;;;;;;5068021;28;20043;-82
2022/04/05 10:58:41;;;;;;;0.50;0.50;;;8.70;99.90;;;;;;5072072;28;20123;-82
2022/04/05 11:01:22;;;;;;;0.90;0.88;;;8.80;99.90;;;;;;5055680;28;20106;-83
2022/04/05 11:04:09;;;;;;;1.17;1.00;;;8.80;99.90;;;;;;5079868;28;20141;-84
2022/04/05 11:07:05;;;;;;;1.00;1.00;;;8.70;99.90;;;;;;5084794;28;20040;-85
2022/04/05 11:09:32;;;;;;;1.25;1.02;;;8.60;99.90;;;;;;5059601;28;20475;-82
2022/04/05 11:12:02;;;;;;;0.65;0.57;;;8.70;99.90;;;;;;5061512;28;20072;-84
2022/04/05 11:14:43;;;;;;;0.70;0.70;;;8.70;99.90;;;;;;5059770;28;20048;-85
2022/04/05 11:17:10;;;;;;;1.08;1.05;;;8.70;99.90;;;;;;5064642;28;20048;-84
2022/04/05 11:19:39;;;;;;;1.25;1.15;;;8.70;99.90;;;;;;5065161;28;20485;-84
2022/04/05 11:22:19;;;;;;;2.00;0.77;;;8.70;99.90;;;;;;5058132;28;20045;-83
2022/04/05 11:25:07;;;;;;;0.90;0.90;;;8.70;99.90;;;;;;5074310;28;20504;-84
2022/04/05 11:27:35;;;;;;;1.10;1.00;;;8.70;99.90;;;;;;5048492;28;20089;-84
2022/04/05 11:30:23;;;;;;;0.65;0.65;;;8.80;99.90;;;;;;5088032;28;20036;-84
2022/04/05 11:33:13;;;;;;;1.75;1.05;;;8.60;99.90;;;;;;5072689;28;20053;-85
2022/04/05 11:35:46;;;;;;;0.93;0.93;;;8.60;99.90;;;;;;5079159;28;20059;-86
2022/04/05 11:38:18;;;;;;;0.65;0.65;;;8.70;99.90;;;;;;5058266;28;20041;-84
2022/04/05 11:40:49;;;;;;;3.10;1.17;;;8.70;99.90;;;;;;5088902;28;20120;-85
2022/04/05 11:43:21;;;;;;;2.15;0.98;;;8.80;99.90;;;;;;5047656;28;20064;-82
2022/04/05 11:45:48;;;;;;;1.15;1.02;;;8.90;99.90;;;;;;5071941;28;20032;-82
2022/04/05 11:48:16;;;;;;;0.63;0.63;;;8.70;99.90;;;;;;5055864;28;20040;-83
2022/04/05 11:50:42;;;;;;;1.95;0.98;;;8.80;99.90;;;;;;5055351;28;20492;-83
2022/04/05 11:53:41;;;;;;;1.38;0.98;;;8.80;99.90;;;;;;5054093;28;20491;-84
2022/04/05 11:56:13;;;;;;;1.42;1.15;;;8.80;99.90;;;;;;5017457;28;20053;-86
2022/04/05 11:58:42;;;;;;;2.05;1.70;;;8.70;99.90;;;;;;5088966;28;20059;-84
2022/04/05 12:01:10;;;;;;;0.50;0.50;;;8.70;99.90;;;;;;5080064;28;20047;-83
2022/04/05 12:04:01;;;;;;;0.60;0.60;;;8.90;99.90;;;;;;5060553;28;20044;-86
2022/04/05 12:06:35;;;;;;;3.50;1.13;;;9.10;99.90;;;;;;5060776;28;20098;-86
2022/04/05 12:09:05;;;;;;;1.55;1.10;;;9.20;99.90;;;;;;5075855;28;20040;-86
2022/04/05 12:11:32;;;;;;;0.98;0.95;;;9.30;99.90;;;;;;5074300;28;20155;-85
2022/04/05 12:14:06;;;;;;;2.28;1.55;;;9.40;99.90;;;;;;5056887;28;20079;-84
2022/04/05 12:16:47;;;;;;;1.63;1.23;;;9.60;99.90;;;;;;5046218;28;20040;-84
2022/04/05 12:19:24;;;;;;;3.42;1.67;;;9.80;99.90;;;;;;5072910;28;20123;-84
2022/04/05 12:21:57;;;;;;;1.17;0.98;;;10.00;99.90;;;;;;5071188;28;20392;-86
2022/04/05 12:24:25;;;;;;;0.77;0.75;;;10.10;99.90;;;;;;5055364;28;20056;-87
2022/04/05 12:26:51;;;;;;;0.60;0.60;;;10.20;99.90;;;;;;5079458;28;20115;-82
2022/04/05 12:29:17;;;;;;;1.33;1.23;;;10.20;99.90;;;;;;5067895;28;20512;-82
2022/04/05 12:31:44;;;;;;;1.05;0.95;;;10.20;99.90;;;;;;5045301;28;20032;-83
2022/04/05 12:34:14;;;;;;;4.82;1.15;;;10.20;99.90;;;;;;5052267;28;20486;-85
2022/04/05 12:36:41;;;;;;;1.55;1.33;;;10.30;99.90;;;;;;5054998;28;20040;-81
2022/04/05 12:39:18;;;;;;;1.17;1.02;;;10.40;99.90;;;;;;5081106;28;20487;-81
2022/04/05 12:41:48;;;;;;;0.60;0.60;;;10.40;99.90;;;;;;5069032;28;20472;-81
2022/04/05 12:44:17;;;;;;;0.80;0.80;;;10.40;99.90;;;;;;5062783;28;20048;-81
2022/04/05 12:46:59;;;;;;;1.27;0.98;;;10.40;99.90;;;;;;5069166;28;20040;-79
2022/04/05 12:49:38;;;;;;;0.82;0.70;;;10.40;99.90;;;;;;5056330;28;20033;-80
2022/04/05 12:52:17;;;;;;;1.08;0.82;;;10.20;99.90;;;;;;5069550;28;20409;-81
2022/04/05 12:54:55;;;;;;;0.80;0.80;;;10.20;99.90;;;;;;5069927;28;20098;-79
2022/04/05 12:57:26;;;;;;;0.95;0.88;;;10.20;99.90;;;;;;5070042;28;20041;-81
2022/04/05 12:59:53;;;;;;;1.88;1.13;;;10.20;99.90;;;;;;5070098;28;20515;-78
2022/04/05 13:02:28;;;;;;;2.67;1.17;;;10.20;99.90;;;;;;5065213;28;20052;-81
2022/04/05 13:07:55;;;;;;;1.20;1.05;;;10.10;99.90;;;;;;5079019;28;20044;-83
2022/04/05 13:10:46;;;;;;;2.05;1.33;;;9.90;99.90;;;;;;5063273;28;20043;-82
2022/04/05 13:13:20;;;;;;;1.48;1.38;;;10.00;99.90;;;;;;5074993;28;20051;-81